sensor_id;sensor_type;location;lat;lon;timestamp;P1;durP1;ratioP1;P2;durP2;ratioP2
6983;SDS011;3532;51.118;7.210;2023-04-01T00:01:36;2.73;;;1.40;;
6983;SDS011;3532;51.118;7.210;2023-04-01T00:04:01;4.27;;;1.70;;
6983;SDS011;3532;51.118;7.210;2023-04-01T00:06:27;3.90;;;1.40;;
6983;SDS011;3532;51.118;7.210;2023-04-01T00:08:52;3.40;;;2.07;;
6983;SDS011;3532;51.118;7.210;2023-04-01T00:11:18;6.37;;;2.03;;
6983;SDS011;3532;51.118;7.210;2023-04-01T00:13:43;2.20;;;1.50;;
6983;SDS011;3532;51.118;7.210;2023-04-01T00:16:09;3.13;;;1.67;;
6983;SDS011;3532;51.118;7.210;2023-04-01T00:18:35;3.77;;;1.70;;
6983;SDS011;3532;51.118;7.210;2023-04-01T00:21:00;2.33;;;1.53;;
6983;SDS011;3532;51.118;7.210;2023-04-01T00:23:25;1.93;;;1.67;;
6983;SDS011;3532;51.118;7.210;2023-04-01T00:25:51;2.83;;;1.43;;
6983;SDS011;3532;51.118;7.210;2023-04-01T00:28:17;6.60;;;1.60;;
6983;SDS011;3532;51.118;7.210;2023-04-01T00:30:43;1.73;;;1.30;;
6983;SDS011;3532;51.118;7.210;2023-04-01T00:33:09;2.10;;;1.30;;
6983;SDS011;3532;51.118;7.210;2023-04-01T00:35:34;3.53;;;1.50;;
6983;SDS011;3532;51.118;7.210;2023-04-01T00:38:00;4.20;;;1.70;;
6983;SDS011;3532;51.118;7.210;2023-04-01T00:40:30;2.90;;;1.93;;
6983;SDS011;3532;51.118;7.210;2023-04-01T00:42:57;6.13;;;1.60;;
6983;SDS011;3532;51.118;7.210;2023-04-01T00:47:56;2.47;;;1.30;;
6983;SDS011;3532;51.118;7.210;2023-04-01T00:50:22;3.37;;;1.40;;
6983;SDS011;3532;51.118;7.210;2023-04-01T00:52:49;2.60;;;1.40;;
6983;SDS011;3532;51.118;7.210;2023-04-01T00:55:15;4.07;;;1.47;;
6983;SDS011;3532;51.118;7.210;2023-04-01T00:57:41;1.93;;;1.30;;
6983;SDS011;3532;51.118;7.210;2023-04-01T01:00:09;3.77;;;1.50;;
6983;SDS011;3532;51.118;7.210;2023-04-01T01:02:37;2.00;;;1.63;;
6983;SDS011;3532;51.118;7.210;2023-04-01T01:05:03;2.57;;;1.30;;
6983;SDS011;3532;51.118;7.210;2023-04-01T01:13:08;1.50;;;1.40;;
6983;SDS011;3532;51.118;7.210;2023-04-01T01:21:23;3.83;;;1.67;;
6983;SDS011;3532;51.118;7.210;2023-04-01T01:27:19;1.47;;;1.30;;
6983;SDS011;3532;51.118;7.210;2023-04-01T01:35:24;2.83;;;1.60;;
6983;SDS011;3532;51.118;7.210;2023-04-01T01:37:58;1.40;;;1.20;;
6983;SDS011;3532;51.118;7.210;2023-04-01T01:40:26;2.03;;;1.40;;
6983;SDS011;3532;51.118;7.210;2023-04-01T01:42:53;3.80;;;1.23;;
6983;SDS011;3532;51.118;7.210;2023-04-01T01:45:23;1.27;;;1.17;;
6983;SDS011;3532;51.118;7.210;2023-04-01T01:47:49;1.50;;;1.40;;
6983;SDS011;3532;51.118;7.210;2023-04-01T01:50:16;1.87;;;1.30;;
6983;SDS011;3532;51.118;7.210;2023-04-01T01:52:42;1.47;;;1.10;;
6983;SDS011;3532;51.118;7.210;2023-04-01T01:58:28;1.70;;;1.20;;
6983;SDS011;3532;51.118;7.210;2023-04-01T02:00:56;1.67;;;1.30;;
6983;SDS011;3532;51.118;7.210;2023-04-01T02:03:24;1.33;;;1.23;;
6983;SDS011;3532;51.118;7.210;2023-04-01T02:05:50;1.67;;;1.20;;
6983;SDS011;3532;51.118;7.210;2023-04-01T02:08:21;2.30;;;1.10;;
6983;SDS011;3532;51.118;7.210;2023-04-01T02:10:55;1.67;;;1.10;;
6983;SDS011;3532;51.118;7.210;2023-04-01T02:13:33;2.47;;;1.27;;
6983;SDS011;3532;51.118;7.210;2023-04-01T02:16:28;3.37;;;1.30;;
6983;SDS011;3532;51.118;7.210;2023-04-01T02:18:57;2.47;;;1.30;;
6983;SDS011;3532;51.118;7.210;2023-04-01T02:21:23;2.37;;;1.17;;
6983;SDS011;3532;51.118;7.210;2023-04-01T02:23:50;3.97;;;1.43;;
6983;SDS011;3532;51.118;7.210;2023-04-01T02:26:16;2.60;;;1.30;;
6983;SDS011;3532;51.118;7.210;2023-04-01T02:28:41;1.23;;;1.10;;
6983;SDS011;3532;51.118;7.210;2023-04-01T02:31:09;1.97;;;1.03;;
6983;SDS011;3532;51.118;7.210;2023-04-01T02:33:35;1.60;;;1.50;;
6983;SDS011;3532;51.118;7.210;2023-04-01T02:36:03;3.00;;;1.30;;
6983;SDS011;3532;51.118;7.210;2023-04-01T02:38:29;2.10;;;1.20;;
6983;SDS011;3532;51.118;7.210;2023-04-01T02:40:59;1.67;;;1.20;;
6983;SDS011;3532;51.118;7.210;2023-04-01T02:43:25;1.60;;;1.50;;
6983;SDS011;3532;51.118;7.210;2023-04-01T02:45:50;3.20;;;1.50;;
6983;SDS011;3532;51.118;7.210;2023-04-01T02:48:16;1.90;;;1.27;;
6983;SDS011;3532;51.118;7.210;2023-04-01T02:50:41;1.20;;;1.10;;
6983;SDS011;3532;51.118;7.210;2023-04-01T02:53:06;1.37;;;1.27;;
6983;SDS011;3532;51.118;7.210;2023-04-01T02:55:32;2.07;;;1.30;;
6983;SDS011;3532;51.118;7.210;2023-04-01T02:57:58;3.43;;;1.10;;
6983;SDS011;3532;51.118;7.210;2023-04-01T03:00:24;1.23;;;1.07;;
6983;SDS011;3532;51.118;7.210;2023-04-01T03:02:50;2.13;;;1.50;;
6983;SDS011;3532;51.118;7.210;2023-04-01T03:05:15;1.53;;;1.30;;
6983;SDS011;3532;51.118;7.210;2023-04-01T03:07:40;1.40;;;1.20;;
6983;SDS011;3532;51.118;7.210;2023-04-01T03:10:06;2.47;;;1.30;;
6983;SDS011;3532;51.118;7.210;2023-04-01T03:12:32;1.20;;;1.10;;
6983;SDS011;3532;51.118;7.210;2023-04-01T03:14:58;1.30;;;1.20;;
6983;SDS011;3532;51.118;7.210;2023-04-01T03:17:23;1.63;;;1.20;;
6983;SDS011;3532;51.118;7.210;2023-04-01T03:19:48;3.03;;;1.30;;
6983;SDS011;3532;51.118;7.210;2023-04-01T03:22:14;3.23;;;1.27;;
6983;SDS011;3532;51.118;7.210;2023-04-01T03:24:39;2.33;;;1.30;;
6983;SDS011;3532;51.118;7.210;2023-04-01T03:27:05;1.87;;;1.37;;
6983;SDS011;3532;51.118;7.210;2023-04-01T03:29:30;1.50;;;1.40;;
6983;SDS011;3532;51.118;7.210;2023-04-01T03:31:55;1.20;;;1.10;;
6983;SDS011;3532;51.118;7.210;2023-04-01T03:34:23;2.27;;;1.13;;
6983;SDS011;3532;51.118;7.210;2023-04-01T03:36:48;1.50;;;1.20;;
6983;SDS011;3532;51.118;7.210;2023-04-01T03:39:14;2.63;;;1.33;;
6983;SDS011;3532;51.118;7.210;2023-04-01T03:41:43;1.57;;;1.47;;
6983;SDS011;3532;51.118;7.210;2023-04-01T03:44:09;2.67;;;1.37;;
6983;SDS011;3532;51.118;7.210;2023-04-01T03:46:34;1.70;;;1.27;;
6983;SDS011;3532;51.118;7.210;2023-04-01T03:48:59;1.30;;;1.20;;
6983;SDS011;3532;51.118;7.210;2023-04-01T03:51:25;1.47;;;1.37;;
6983;SDS011;3532;51.118;7.210;2023-04-01T03:53:50;2.03;;;1.30;;
6983;SDS011;3532;51.118;7.210;2023-04-01T03:56:16;1.37;;;1.20;;
6983;SDS011;3532;51.118;7.210;2023-04-01T03:58:41;1.57;;;1.23;;
6983;SDS011;3532;51.118;7.210;2023-04-01T04:01:16;1.23;;;1.20;;
6983;SDS011;3532;51.118;7.210;2023-04-01T04:03:43;2.73;;;1.20;;
6983;SDS011;3532;51.118;7.210;2023-04-01T04:06:12;1.20;;;1.10;;
6983;SDS011;3532;51.118;7.210;2023-04-01T04:08:38;2.20;;;1.20;;
6983;SDS011;3532;51.118;7.210;2023-04-01T04:11:04;1.30;;;1.20;;
6983;SDS011;3532;51.118;7.210;2023-04-01T04:13:29;1.63;;;1.30;;
6983;SDS011;3532;51.118;7.210;2023-04-01T04:15:55;1.20;;;1.10;;
6983;SDS011;3532;51.118;7.210;2023-04-01T04:18:20;1.47;;;1.17;;
6983;SDS011;3532;51.118;7.210;2023-04-01T04:20:45;1.30;;;1.20;;
6983;SDS011;3532;51.118;7.210;2023-04-01T04:23:16;3.03;;;1.30;;
6983;SDS011;3532;51.118;7.210;2023-04-01T04:25:41;1.60;;;1.50;;
6983;SDS011;3532;51.118;7.210;2023-04-01T04:28:07;2.90;;;1.40;;
6983;SDS011;3532;51.118;7.210;2023-04-01T04:30:32;2.07;;;1.40;;
6983;SDS011;3532;51.118;7.210;2023-04-01T04:32:57;1.30;;;1.20;;
6983;SDS011;3532;51.118;7.210;2023-04-01T04:35:22;1.63;;;1.53;;
6983;SDS011;3532;51.118;7.210;2023-04-01T04:37:48;1.50;;;1.33;;
6983;SDS011;3532;51.118;7.210;2023-04-01T04:40:13;2.20;;;1.97;;
6983;SDS011;3532;51.118;7.210;2023-04-01T04:42:38;2.10;;;1.60;;
6983;SDS011;3532;51.118;7.210;2023-04-01T04:45:04;1.90;;;1.80;;
6983;SDS011;3532;51.118;7.210;2023-04-01T04:47:30;2.10;;;1.67;;
6983;SDS011;3532;51.118;7.210;2023-04-01T04:49:56;1.70;;;1.60;;
6983;SDS011;3532;51.118;7.210;2023-04-01T04:52:21;1.63;;;1.53;;
6983;SDS011;3532;51.118;7.210;2023-04-01T04:54:46;1.77;;;1.40;;
6983;SDS011;3532;51.118;7.210;2023-04-01T04:57:11;2.43;;;1.53;;
6983;SDS011;3532;51.118;7.210;2023-04-01T04:59:37;4.80;;;1.63;;
6983;SDS011;3532;51.118;7.210;2023-04-01T05:02:02;1.67;;;1.53;;
6983;SDS011;3532;51.118;7.210;2023-04-01T05:04:27;1.40;;;1.30;;
6983;SDS011;3532;51.118;7.210;2023-04-01T05:06:53;3.20;;;1.50;;
6983;SDS011;3532;51.118;7.210;2023-04-01T05:09:18;1.50;;;1.40;;
6983;SDS011;3532;51.118;7.210;2023-04-01T05:11:44;1.73;;;1.37;;
6983;SDS011;3532;51.118;7.210;2023-04-01T05:14:15;1.93;;;1.70;;
6983;SDS011;3532;51.118;7.210;2023-04-01T05:16:41;2.60;;;1.40;;
6983;SDS011;3532;51.118;7.210;2023-04-01T05:19:06;2.27;;;1.17;;
6983;SDS011;3532;51.118;7.210;2023-04-01T05:21:32;3.20;;;1.57;;
6983;SDS011;3532;51.118;7.210;2023-04-01T05:23:57;1.70;;;1.50;;
6983;SDS011;3532;51.118;7.210;2023-04-01T05:26:22;1.37;;;1.27;;
6983;SDS011;3532;51.118;7.210;2023-04-01T05:28:48;2.57;;;1.73;;
6983;SDS011;3532;51.118;7.210;2023-04-01T05:31:13;1.77;;;1.67;;
6983;SDS011;3532;51.118;7.210;2023-04-01T05:33:38;1.50;;;1.40;;
6983;SDS011;3532;51.118;7.210;2023-04-01T05:36:11;1.50;;;1.40;;
6983;SDS011;3532;51.118;7.210;2023-04-01T05:38:37;2.50;;;1.60;;
6983;SDS011;3532;51.118;7.210;2023-04-01T05:41:03;2.07;;;1.70;;
6983;SDS011;3532;51.118;7.210;2023-04-01T05:43:28;1.57;;;1.47;;
6983;SDS011;3532;51.118;7.210;2023-04-01T05:45:55;1.90;;;1.80;;
6983;SDS011;3532;51.118;7.210;2023-04-01T05:48:20;2.10;;;1.57;;
6983;SDS011;3532;51.118;7.210;2023-04-01T05:50:46;2.83;;;1.87;;
6983;SDS011;3532;51.118;7.210;2023-04-01T05:53:11;2.07;;;1.63;;
6983;SDS011;3532;51.118;7.210;2023-04-01T05:55:36;1.87;;;1.77;;
6983;SDS011;3532;51.118;7.210;2023-04-01T05:58:02;2.17;;;1.90;;
6983;SDS011;3532;51.118;7.210;2023-04-01T06:00:27;2.07;;;1.97;;
6983;SDS011;3532;51.118;7.210;2023-04-01T06:02:52;1.87;;;1.77;;
6983;SDS011;3532;51.118;7.210;2023-04-01T06:05:19;2.10;;;1.80;;
6983;SDS011;3532;51.118;7.210;2023-04-01T06:07:46;2.17;;;2.03;;
6983;SDS011;3532;51.118;7.210;2023-04-01T06:10:12;2.23;;;2.10;;
6983;SDS011;3532;51.118;7.210;2023-04-01T06:13:03;2.27;;;2.07;;
6983;SDS011;3532;51.118;7.210;2023-04-01T06:18:13;1.70;;;1.60;;
6983;SDS011;3532;51.118;7.210;2023-04-01T06:21:04;2.83;;;1.63;;
6983;SDS011;3532;51.118;7.210;2023-04-01T06:26:49;1.93;;;1.83;;
6983;SDS011;3532;51.118;7.210;2023-04-01T06:32:22;2.13;;;2.00;;
6983;SDS011;3532;51.118;7.210;2023-04-01T06:40:41;2.40;;;2.30;;
6983;SDS011;3532;51.118;7.210;2023-04-01T06:43:38;3.30;;;3.00;;
6983;SDS011;3532;51.118;7.210;2023-04-01T06:51:36;2.93;;;2.70;;
6983;SDS011;3532;51.118;7.210;2023-04-01T06:54:13;2.90;;;2.70;;
6983;SDS011;3532;51.118;7.210;2023-04-01T06:56:43;3.50;;;3.13;;
6983;SDS011;3532;51.118;7.210;2023-04-01T06:59:19;3.17;;;2.93;;
6983;SDS011;3532;51.118;7.210;2023-04-01T07:01:49;3.27;;;2.97;;
6983;SDS011;3532;51.118;7.210;2023-04-01T07:04:19;3.07;;;2.87;;
6983;SDS011;3532;51.118;7.210;2023-04-01T07:06:48;2.83;;;2.63;;
6983;SDS011;3532;51.118;7.210;2023-04-01T07:09:19;3.37;;;3.07;;
6983;SDS011;3532;51.118;7.210;2023-04-01T07:11:45;2.50;;;2.30;;
6983;SDS011;3532;51.118;7.210;2023-04-01T07:14:22;3.50;;;2.60;;
6983;SDS011;3532;51.118;7.210;2023-04-01T07:16:51;2.37;;;2.17;;
6983;SDS011;3532;51.118;7.210;2023-04-01T07:19:26;2.87;;;2.67;;
6983;SDS011;3532;51.118;7.210;2023-04-01T07:22:05;2.60;;;2.40;;
6983;SDS011;3532;51.118;7.210;2023-04-01T07:24:51;2.80;;;2.60;;
6983;SDS011;3532;51.118;7.210;2023-04-01T07:27:16;3.00;;;2.30;;
6983;SDS011;3532;51.118;7.210;2023-04-01T07:29:41;4.43;;;2.60;;
6983;SDS011;3532;51.118;7.210;2023-04-01T07:32:09;2.90;;;2.40;;
6983;SDS011;3532;51.118;7.210;2023-04-01T07:35:00;2.97;;;2.77;;
6983;SDS011;3532;51.118;7.210;2023-04-01T07:43:00;2.70;;;2.50;;
6983;SDS011;3532;51.118;7.210;2023-04-01T07:45:36;2.77;;;2.57;;
6983;SDS011;3532;51.118;7.210;2023-04-01T07:51:00;2.47;;;2.27;;
6983;SDS011;3532;51.118;7.210;2023-04-01T07:53:38;2.73;;;2.50;;
6983;SDS011;3532;51.118;7.210;2023-04-01T07:58:50;3.03;;;2.70;;
6983;SDS011;3532;51.118;7.210;2023-04-01T08:03:55;2.83;;;2.63;;
6983;SDS011;3532;51.118;7.210;2023-04-01T08:06:48;2.40;;;2.20;;
6983;SDS011;3532;51.118;7.210;2023-04-01T08:09:22;3.30;;;3.00;;
6983;SDS011;3532;51.118;7.210;2023-04-01T08:11:55;3.73;;;3.13;;
6983;SDS011;3532;51.118;7.210;2023-04-01T08:25:39;2.80;;;2.60;;
6983;SDS011;3532;51.118;7.210;2023-04-01T08:38:36;3.33;;;2.20;;
6983;SDS011;3532;51.118;7.210;2023-04-01T08:41:30;2.20;;;2.03;;
6983;SDS011;3532;51.118;7.210;2023-04-01T08:54:37;2.53;;;2.30;;
6983;SDS011;3532;51.118;7.210;2023-04-01T09:15:50;2.10;;;1.90;;
6983;SDS011;3532;51.118;7.210;2023-04-01T09:35:23;3.87;;;3.60;;
6983;SDS011;3532;51.118;7.210;2023-04-01T09:46:34;3.80;;;3.30;;
6983;SDS011;3532;51.118;7.210;2023-04-01T09:54:44;6.47;;;3.33;;
6983;SDS011;3532;51.118;7.210;2023-04-01T10:02:48;3.90;;;3.60;;
6983;SDS011;3532;51.118;7.210;2023-04-01T10:17:23;3.97;;;3.67;;
6983;SDS011;3532;51.118;7.210;2023-04-01T10:20:18;4.30;;;3.90;;
6983;SDS011;3532;51.118;7.210;2023-04-01T10:23:02;5.17;;;4.77;;
6983;SDS011;3532;51.118;7.210;2023-04-01T10:25:53;4.77;;;4.43;;
6983;SDS011;3532;51.118;7.210;2023-04-01T10:50:35;5.43;;;4.93;;
6983;SDS011;3532;51.118;7.210;2023-04-01T11:13:39;4.70;;;4.30;;
6983;SDS011;3532;51.118;7.210;2023-04-01T11:24:30;2.97;;;2.77;;
6983;SDS011;3532;51.118;7.210;2023-04-01T11:27:15;3.20;;;3.00;;
6983;SDS011;3532;51.118;7.210;2023-04-01T11:32:29;3.63;;;3.33;;
6983;SDS011;3532;51.118;7.210;2023-04-01T11:40:37;3.90;;;3.60;;
6983;SDS011;3532;51.118;7.210;2023-04-01T11:45:50;4.73;;;4.33;;
6983;SDS011;3532;51.118;7.210;2023-04-01T11:48:28;5.43;;;5.03;;
6983;SDS011;3532;51.118;7.210;2023-04-01T12:01:45;6.97;;;6.37;;
6983;SDS011;3532;51.118;7.210;2023-04-01T12:07:21;7.47;;;6.87;;
6983;SDS011;3532;51.118;7.210;2023-04-01T12:09:52;7.87;;;7.07;;
6983;SDS011;3532;51.118;7.210;2023-04-01T12:31:06;8.00;;;7.20;;
6983;SDS011;3532;51.118;7.210;2023-04-01T12:36:27;7.07;;;6.47;;
6983;SDS011;3532;51.118;7.210;2023-04-01T12:44:54;7.57;;;6.87;;
6983;SDS011;3532;51.118;7.210;2023-04-01T12:47:45;7.90;;;7.20;;
6983;SDS011;3532;51.118;7.210;2023-04-01T12:55:50;7.87;;;7.17;;
6983;SDS011;3532;51.118;7.210;2023-04-01T13:15:09;6.93;;;6.27;;
6983;SDS011;3532;51.118;7.210;2023-04-01T13:36:35;6.50;;;5.90;;
6983;SDS011;3532;51.118;7.210;2023-04-01T13:42:25;5.53;;;4.73;;
6983;SDS011;3532;51.118;7.210;2023-04-01T13:53:15;6.60;;;6.00;;
6983;SDS011;3532;51.118;7.210;2023-04-01T13:55:49;6.40;;;5.57;;
6983;SDS011;3532;51.118;7.210;2023-04-01T14:01:42;5.50;;;5.00;;
6983;SDS011;3532;51.118;7.210;2023-04-01T14:04:20;6.33;;;5.73;;
6983;SDS011;3532;51.118;7.210;2023-04-01T14:12:27;5.77;;;5.27;;
6983;SDS011;3532;51.118;7.210;2023-04-01T14:15:05;5.83;;;5.33;;
6983;SDS011;3532;51.118;7.210;2023-04-01T14:18:50;6.00;;;5.50;;
6983;SDS011;3532;51.118;7.210;2023-04-01T14:26:30;5.70;;;5.17;;
6983;SDS011;3532;51.118;7.210;2023-04-01T14:48:39;5.97;;;5.47;;
6983;SDS011;3532;51.118;7.210;2023-04-01T14:51:16;7.07;;;6.17;;
6983;SDS011;3532;51.118;7.210;2023-04-01T14:56:46;6.67;;;6.07;;
6983;SDS011;3532;51.118;7.210;2023-04-01T15:13:05;6.47;;;5.97;;
6983;SDS011;3532;51.118;7.210;2023-04-01T15:15:58;6.80;;;6.20;;
6983;SDS011;3532;51.118;7.210;2023-04-01T15:24:07;5.13;;;4.73;;
6983;SDS011;3532;51.118;7.210;2023-04-01T15:26:47;4.73;;;4.33;;
6983;SDS011;3532;51.118;7.210;2023-04-01T15:32:02;3.90;;;3.60;;
6983;SDS011;3532;51.118;7.210;2023-04-01T15:37:42;4.77;;;4.37;;
6983;SDS011;3532;51.118;7.210;2023-04-01T15:57:08;6.63;;;5.63;;
6983;SDS011;3532;51.118;7.210;2023-04-01T16:02:28;6.40;;;5.80;;
6983;SDS011;3532;51.118;7.210;2023-04-01T16:05:20;7.07;;;6.40;;
6983;SDS011;3532;51.118;7.210;2023-04-01T16:10:49;6.70;;;6.00;;
6983;SDS011;3532;51.118;7.210;2023-04-01T16:13:37;6.17;;;5.67;;
6983;SDS011;3532;51.118;7.210;2023-04-01T16:16:39;5.80;;;5.27;;
6983;SDS011;3532;51.118;7.210;2023-04-01T16:19:33;6.23;;;5.53;;
6983;SDS011;3532;51.118;7.210;2023-04-01T16:22:07;5.87;;;5.37;;
6983;SDS011;3532;51.118;7.210;2023-04-01T16:27:36;6.07;;;5.47;;
6983;SDS011;3532;51.118;7.210;2023-04-01T16:32:50;5.80;;;5.27;;
6983;SDS011;3532;51.118;7.210;2023-04-01T16:35:28;5.47;;;4.97;;
6983;SDS011;3532;51.118;7.210;2023-04-01T16:38:15;5.00;;;4.60;;
6983;SDS011;3532;51.118;7.210;2023-04-01T16:41:28;5.40;;;4.90;;
6983;SDS011;3532;51.118;7.210;2023-04-01T16:43:37;5.10;;;4.37;;
6983;SDS011;3532;51.118;7.210;2023-04-01T16:46:17;5.53;;;5.03;;
6983;SDS011;3532;51.118;7.210;2023-04-01T16:51:24;4.87;;;4.37;;
6983;SDS011;3532;51.118;7.210;2023-04-01T16:54:02;5.57;;;4.87;;
6983;SDS011;3532;51.118;7.210;2023-04-01T16:56:43;6.50;;;5.37;;
6983;SDS011;3532;51.118;7.210;2023-04-01T17:01:48;5.07;;;4.63;;
6983;SDS011;3532;51.118;7.210;2023-04-01T17:04:30;5.57;;;5.07;;
6983;SDS011;3532;51.118;7.210;2023-04-01T17:07:01;4.90;;;4.50;;
6983;SDS011;3532;51.118;7.210;2023-04-01T17:09:56;4.90;;;4.50;;
6983;SDS011;3532;51.118;7.210;2023-04-01T17:15:03;5.83;;;4.77;;
6983;SDS011;3532;51.118;7.210;2023-04-01T17:22:54;5.87;;;5.30;;
6983;SDS011;3532;51.118;7.210;2023-04-01T17:28:50;4.40;;;4.00;;
6983;SDS011;3532;51.118;7.210;2023-04-01T17:31:07;4.47;;;4.07;;
6983;SDS011;3532;51.118;7.210;2023-04-01T17:41:41;6.33;;;4.80;;
6983;SDS011;3532;51.118;7.210;2023-04-01T17:44:33;5.37;;;4.90;;
6983;SDS011;3532;51.118;7.210;2023-04-01T17:50:29;4.97;;;4.27;;
6983;SDS011;3532;51.118;7.210;2023-04-01T17:53:22;4.57;;;4.17;;
6983;SDS011;3532;51.118;7.210;2023-04-01T17:58:33;5.50;;;5.00;;
6983;SDS011;3532;51.118;7.210;2023-04-01T18:01:25;4.70;;;4.40;;
6983;SDS011;3532;51.118;7.210;2023-04-01T18:06:45;4.47;;;4.10;;
6983;SDS011;3532;51.118;7.210;2023-04-01T18:18:08;4.80;;;4.40;;
6983;SDS011;3532;51.118;7.210;2023-04-01T18:23:35;5.10;;;4.70;;
6983;SDS011;3532;51.118;7.210;2023-04-01T18:26:08;5.97;;;5.47;;
6983;SDS011;3532;51.118;7.210;2023-04-01T18:28:47;5.37;;;4.87;;
6983;SDS011;3532;51.118;7.210;2023-04-01T18:31:41;5.17;;;4.77;;
6983;SDS011;3532;51.118;7.210;2023-04-01T18:36:59;5.57;;;5.07;;
6983;SDS011;3532;51.118;7.210;2023-04-01T18:39:37;5.33;;;4.93;;
6983;SDS011;3532;51.118;7.210;2023-04-01T18:56:37;4.93;;;4.53;;
6983;SDS011;3532;51.118;7.210;2023-04-01T19:04:52;6.30;;;5.80;;
6983;SDS011;3532;51.118;7.210;2023-04-01T19:12:40;7.07;;;6.20;;
6983;SDS011;3532;51.118;7.210;2023-04-01T19:18:34;6.87;;;6.03;;
6983;SDS011;3532;51.118;7.210;2023-04-01T19:21:47;6.10;;;5.57;;
6983;SDS011;3532;51.118;7.210;2023-04-01T19:32:03;6.50;;;5.83;;
6983;SDS011;3532;51.118;7.210;2023-04-01T19:34:44;6.70;;;6.10;;
6983;SDS011;3532;51.118;7.210;2023-04-01T19:40:08;6.17;;;5.67;;
6983;SDS011;3532;51.118;7.210;2023-04-01T19:50:47;5.90;;;5.40;;
6983;SDS011;3532;51.118;7.210;2023-04-01T19:53:30;5.87;;;5.37;;
6983;SDS011;3532;51.118;7.210;2023-04-01T20:01:03;6.30;;;5.80;;
6983;SDS011;3532;51.118;7.210;2023-04-01T20:05:57;6.27;;;5.67;;
6983;SDS011;3532;51.118;7.210;2023-04-01T20:08:36;6.63;;;6.07;;
6983;SDS011;3532;51.118;7.210;2023-04-01T20:16:58;6.20;;;5.70;;
6983;SDS011;3532;51.118;7.210;2023-04-01T20:19:33;5.77;;;5.27;;
6983;SDS011;3532;51.118;7.210;2023-04-01T20:22:01;6.53;;;5.93;;
6983;SDS011;3532;51.118;7.210;2023-04-01T20:24:37;6.50;;;5.90;;
6983;SDS011;3532;51.118;7.210;2023-04-01T20:27:15;5.23;;;4.80;;
6983;SDS011;3532;51.118;7.210;2023-04-01T20:35:35;4.93;;;4.53;;
6983;SDS011;3532;51.118;7.210;2023-04-01T20:38:11;5.30;;;4.80;;
6983;SDS011;3532;51.118;7.210;2023-04-01T20:40:44;5.83;;;5.33;;
6983;SDS011;3532;51.118;7.210;2023-04-01T20:52:05;4.73;;;4.33;;
6983;SDS011;3532;51.118;7.210;2023-04-01T21:08:14;4.67;;;4.27;;
6983;SDS011;3532;51.118;7.210;2023-04-01T21:13:34;4.47;;;4.10;;
6983;SDS011;3532;51.118;7.210;2023-04-01T21:27:20;4.77;;;4.37;;
6983;SDS011;3532;51.118;7.210;2023-04-01T21:32:29;4.80;;;4.40;;
6983;SDS011;3532;51.118;7.210;2023-04-01T21:35:07;4.23;;;3.93;;
6983;SDS011;3532;51.118;7.210;2023-04-01T21:40:17;5.07;;;3.93;;
6983;SDS011;3532;51.118;7.210;2023-04-01T21:43:16;4.53;;;4.13;;
6983;SDS011;3532;51.118;7.210;2023-04-01T21:45:50;5.67;;;4.97;;
6983;SDS011;3532;51.118;7.210;2023-04-01T21:54:06;5.30;;;4.90;;
6983;SDS011;3532;51.118;7.210;2023-04-01T21:57:02;5.73;;;5.23;;
6983;SDS011;3532;51.118;7.210;2023-04-01T22:00:25;5.20;;;4.80;;
6983;SDS011;3532;51.118;7.210;2023-04-01T22:08:06;5.47;;;4.97;;
6983;SDS011;3532;51.118;7.210;2023-04-01T22:10:37;4.63;;;4.23;;
6983;SDS011;3532;51.118;7.210;2023-04-01T22:13:26;4.87;;;4.47;;
6983;SDS011;3532;51.118;7.210;2023-04-01T22:21:52;6.43;;;5.83;;
6983;SDS011;3532;51.118;7.210;2023-04-01T22:32:49;6.90;;;6.30;;
6983;SDS011;3532;51.118;7.210;2023-04-01T22:43:35;6.37;;;5.87;;
6983;SDS011;3532;51.118;7.210;2023-04-01T22:46:05;6.37;;;5.87;;
6983;SDS011;3532;51.118;7.210;2023-04-01T22:54:11;6.70;;;6.10;;
6983;SDS011;3532;51.118;7.210;2023-04-01T22:56:41;9.33;;;6.83;;
6983;SDS011;3532;51.118;7.210;2023-04-01T22:59:19;8.67;;;6.63;;
6983;SDS011;3532;51.118;7.210;2023-04-01T23:01:58;8.17;;;7.47;;
6983;SDS011;3532;51.118;7.210;2023-04-01T23:04:31;7.83;;;7.00;;
6983;SDS011;3532;51.118;7.210;2023-04-01T23:06:58;9.60;;;8.50;;
6983;SDS011;3532;51.118;7.210;2023-04-01T23:09:29;9.33;;;8.53;;
6983;SDS011;3532;51.118;7.210;2023-04-01T23:11:57;9.47;;;8.57;;
6983;SDS011;3532;51.118;7.210;2023-04-01T23:14:29;9.40;;;7.80;;
6983;SDS011;3532;51.118;7.210;2023-04-01T23:17:01;9.47;;;8.47;;
6983;SDS011;3532;51.118;7.210;2023-04-01T23:24:55;10.57;;;9.47;;
6983;SDS011;3532;51.118;7.210;2023-04-01T23:27:25;9.77;;;8.53;;
6983;SDS011;3532;51.118;7.210;2023-04-01T23:29:55;10.37;;;9.30;;
6983;SDS011;3532;51.118;7.210;2023-04-01T23:32:24;9.57;;;8.67;;
6983;SDS011;3532;51.118;7.210;2023-04-01T23:34:52;11.40;;;8.77;;
6983;SDS011;3532;51.118;7.210;2023-04-01T23:37:19;10.13;;;9.10;;
6983;SDS011;3532;51.118;7.210;2023-04-01T23:39:45;9.90;;;8.87;;
6983;SDS011;3532;51.118;7.210;2023-04-01T23:44:51;9.53;;;8.63;;
6983;SDS011;3532;51.118;7.210;2023-04-01T23:47:20;10.43;;;9.10;;
6983;SDS011;3532;51.118;7.210;2023-04-01T23:49:48;11.10;;;10.00;;
6983;SDS011;3532;51.118;7.210;2023-04-01T23:55:03;10.23;;;9.23;;
6983;SDS011;3532;51.118;7.210;2023-04-01T23:57:37;10.13;;;9.13;;
